Time;durP1;ratioP1;P1;durP2;ratioP2;P2;SDS_P1;SDS_P2;PMS_P1;PMS_P2;Temp;Humidity;BMP_temperature;BMP_pressure;BME280_temperature;BME280_humidity;BME280_pressure;Samples;Min_cycle;Max_cycle;Signal;HPM_P1;HPM_P2
2022/12/15 00:40:03;;;;;;;24.93;11.47;;;;;;;5.41;45.25;100736.28;5131806;27;20404;-70
2022/12/15 00:42:31;;;;;;;24.27;11.80;;;;;;;5.45;44.27;100734.56;5115657;27;20287;-70
2022/12/15 00:44:57;;;;;;;25.77;11.83;;;;;;;5.40;44.07;100736.28;5115419;27;20304;-71
2022/12/15 00:47:23;;;;;;;27.57;12.30;;;;;;;5.42;45.04;100731.97;5116272;27;20348;-71
2022/12/15 01:20:18;;;;;;;22.23;11.50;;;;;;;5.45;44.43;100760.50;5134449;27;20740;-70
2022/12/15 01:22:52;;;;;;;26.08;12.07;;;;;;;5.56;44.27;100769.28;5134210;27;20321;-70
2022/12/15 01:25:19;;;;;;;23.93;11.20;;;;;;;5.67;44.44;100771.94;5131423;27;20035;-71
2022/12/15 01:27:45;;;;;;;29.57;13.60;;;;;;;5.92;44.05;100773.03;5114578;27;20629;-70
2022/12/15 01:30:13;;;;;;;25.80;12.47;;;;;;;5.87;43.99;100779.91;5114766;27;20272;-71
2022/12/15 01:32:38;;;;;;;28.20;12.70;;;;;;;5.85;43.97;100781.66;5114290;27;20058;-71
2022/12/15 01:35:05;;;;;;;27.73;13.97;;;;;;;5.62;44.61;100778.84;5105460;27;20376;-70
2022/12/15 01:37:31;;;;;;;24.53;11.43;;;;;;;5.55;44.38;100775.31;5132524;27;20062;-70
2022/12/15 01:42:41;;;;;;;26.40;10.80;;;;;;;5.63;44.31;100779.69;5133199;27;20794;-71
2022/12/15 01:45:25;;;;;;;26.13;12.67;;;;;;;5.74;44.66;100780.66;5114489;27;20264;-71
2022/12/15 01:47:54;;;;;;;27.63;12.43;;;;;;;5.67;44.85;100782.31;5111753;27;20029;-71
2022/12/15 01:50:20;;;;;;;23.87;12.20;;;;;;;5.47;44.86;100784.75;5112104;27;20292;-70
2022/12/15 01:52:47;;;;;;;27.40;13.23;;;;;;;5.28;45.19;100788.00;5132974;27;20287;-70
2022/12/15 01:55:16;;;;;;;25.53;13.03;;;;;;;5.74;44.38;100778.06;5114980;27;20273;-71
2022/12/15 01:57:42;;;;;;;29.47;13.37;;;;;;;5.52;45.13;100788.25;5132260;27;20381;-70
2022/12/15 02:00:08;;;;;;;28.33;13.13;;;;;;;5.42;45.55;100784.66;5113986;27;20329;-71
2022/12/15 02:02:36;;;;;;;28.00;13.27;;;;;;;5.39;45.40;100795.00;5113650;27;20050;-70
2022/12/15 02:05:03;;;;;;;23.73;12.90;;;;;;;5.64;44.39;100791.81;5112101;27;20288;-70
2022/12/15 02:07:28;;;;;;;27.20;13.03;;;;;;;5.56;45.07;100790.03;5131657;27;20294;-70
2022/12/15 02:09:57;;;;;;;23.70;12.50;;;;;;;5.51;44.95;100793.41;5113818;27;20293;-71
2022/12/15 02:12:43;;;;;;;25.80;12.53;;;;;;;5.69;44.61;100797.91;5113492;27;20030;-70
2022/12/15 02:15:35;;;;;;;26.67;13.87;;;;;;;5.68;44.85;100798.78;5114739;27;20337;-70
2022/12/15 02:18:32;;;;;;;28.40;14.63;;;;;;;5.37;45.50;100793.25;5113468;27;20307;-70
2022/12/15 02:21:06;;;;;;;28.17;13.70;;;;;;;5.63;44.85;100800.44;5111615;27;20055;-70
2022/12/15 02:24:09;;;;;;;24.60;12.93;;;;;;;5.44;45.25;100789.91;5112518;27;20547;-70
2022/12/15 02:26:37;;;;;;;;;;;;;;;5.60;44.69;100791.78;5109653;27;20296;-70
2022/12/15 02:29:40;;;;;;;27.70;13.03;;;;;;;5.62;44.27;100789.22;5114399;27;19915;-70
2022/12/15 02:32:13;;;;;;;27.60;13.48;;;;;;;5.26;45.45;100794.03;5128661;27;20292;-70
2022/12/15 02:34:53;;;;;;;27.92;12.82;;;;;;;5.27;45.38;100797.47;5112641;27;20068;-71
2022/12/15 02:37:39;;;;;;;27.30;13.30;;;;;;;5.43;44.11;100791.59;5132428;27;20072;-70
2022/12/15 02:40:08;;;;;;;30.97;13.13;;;;;;;5.33;45.00;100792.38;5093789;28;20281;-70
2022/12/15 02:42:41;;;;;;;25.90;12.67;;;;;;;5.31;44.64;100793.19;5099435;27;20799;-70
2022/12/15 02:45:10;;;;;;;29.38;13.35;;;;;;;4.98;45.45;100789.38;5112437;27;20284;-70
2022/12/15 02:47:46;;;;;;;22.70;12.23;;;;;;;5.30;45.67;100791.47;5130694;27;20088;-71
2022/12/15 02:50:28;;;;;;;27.17;13.40;;;;;;;5.17;44.96;100786.13;5113957;27;20399;-70
2022/12/15 02:53:21;;;;;;;25.83;13.35;;;;;;;5.20;44.82;100793.94;5129365;27;20291;-70
2022/12/15 02:56:04;;;;;;;24.85;13.15;;;;;;;5.22;44.60;100810.38;5092688;28;20038;-70
2022/12/15 02:58:46;;;;;;;31.63;14.43;;;;;;;5.29;45.37;100810.44;5129695;27;20118;-70
2022/12/15 03:01:23;;;;;;;26.33;12.73;;;;;;;5.33;45.15;100813.09;5131242;27;20292;-70
2022/12/15 03:03:50;;;;;;;28.17;13.13;;;;;;;5.23;45.81;100819.91;5108207;27;20292;-71
2022/12/15 03:06:17;;;;;;;28.73;13.40;;;;;;;5.50;44.84;100820.19;5131551;27;20295;-70
2022/12/15 03:08:42;;;;;;;24.83;12.53;;;;;;;5.49;45.03;100818.44;5130644;27;20375;-70
2022/12/15 03:11:08;;;;;;;24.00;12.90;;;;;;;5.49;44.52;100813.28;5113538;27;20359;-70
2022/12/15 03:13:33;;;;;;;23.23;12.27;;;;;;;5.66;44.48;100801.34;5130927;27;20028;-70
2022/12/15 03:15:59;;;;;;;27.20;13.27;;;;;;;5.35;45.62;100800.16;5127926;27;20398;-70
2022/12/15 03:18:24;;;;;;;33.53;12.97;;;;;;;5.64;44.09;100807.38;5131932;27;20207;-71
2022/12/15 03:20:50;;;;;;;22.73;11.87;;;;;;;5.65;44.55;100806.53;5113586;28;20684;-70
2022/12/15 03:23:15;;;;;;;28.43;13.20;;;;;;;5.88;43.95;100801.53;5110818;28;20019;-69
2022/12/15 03:25:43;;;;;;;25.53;11.87;;;;;;;5.59;44.99;100805.59;5129709;27;20031;-70
2022/12/15 03:28:09;;;;;;;23.60;12.43;;;;;;;5.48;44.89;100812.41;5112258;28;20363;-69
2022/12/15 03:30:34;;;;;;;29.80;12.47;;;;;;;5.47;44.56;100821.03;5110771;28;20352;-70
2022/12/15 03:32:59;;;;;;;24.63;12.50;;;;;;;5.65;44.31;100822.09;5131899;28;20054;-70
2022/12/15 03:35:25;;;;;;;28.60;13.00;;;;;;;5.37;45.00;100833.03;5130860;28;20058;-70
2022/12/15 03:37:50;;;;;;;27.83;11.83;;;;;;;5.32;44.60;100831.25;5112733;28;20505;-70
2022/12/15 03:40:16;;;;;;;23.67;11.17;;;;;;;5.35;44.87;100826.09;5129034;27;20083;-70
2022/12/15 03:42:49;;;;;;;27.77;12.27;;;;;;;5.30;45.17;100823.41;5112549;28;20019;-70
2022/12/15 03:45:17;;;;;;;21.37;11.67;;;;;;;5.30;45.40;100822.56;5130186;28;20035;-70
2022/12/15 03:47:43;;;;;;;23.70;11.93;;;;;;;5.65;44.11;100819.50;5113307;28;20358;-70
2022/12/15 03:50:10;;;;;;;24.03;11.83;;;;;;;5.52;43.81;100821.97;5111968;28;20429;-70
2022/12/15 03:52:35;;;;;;;23.73;11.73;;;;;;;5.40;45.24;100833.06;5112109;28;20272;-70
2022/12/15 03:55:01;;;;;;;22.97;11.60;;;;;;;5.48;44.62;100821.91;5110052;27;20284;-70
2022/12/15 03:57:27;;;;;;;25.17;11.07;;;;;;;5.30;45.41;100822.56;5107972;28;20408;-70
2022/12/15 03:59:52;;;;;;;26.30;11.93;;;;;;;5.33;45.08;100825.19;5110793;28;20375;-70
2022/12/15 04:02:18;;;;;;;21.50;10.47;;;;;;;5.31;44.85;100827.75;5107322;28;20426;-70
2022/12/15 04:04:43;;;;;;;24.70;11.40;;;;;;;5.34;45.91;100837.28;5130443;27;20035;-70
2022/12/15 04:07:09;;;;;;;23.00;11.13;;;;;;;5.50;44.80;100826.25;5111386;28;20072;-69
2022/12/15 04:09:35;;;;;;;23.23;11.77;;;;;;;5.37;45.30;100834.72;5129875;28;20080;-70
2022/12/15 04:12:02;;;;;;;24.27;12.10;;;;;;;5.30;45.38;100823.41;5110611;28;20117;-71
2022/12/15 04:14:30;;;;;;;24.73;10.40;;;;;;;5.26;45.47;100832.91;5112938;28;20392;-70
2022/12/15 04:16:55;;;;;;;25.47;10.53;;;;;;;5.26;45.06;100822.53;5113008;28;20265;-70
2022/12/15 04:22:05;;;;;;;21.30;9.90;;;;;;;5.17;45.54;100827.59;5120002;27;20091;-70
2022/12/15 05:32:51;;;;;;;21.43;11.47;;;;;;;5.56;44.91;100854.84;5132000;27;20798;-70
2022/12/15 05:35:17;;;;;;;25.83;12.37;;;;;;;5.46;45.10;100850.41;5112903;27;20284;-70
2022/12/15 05:37:42;;;;;;;26.20;11.80;;;;;;;5.32;44.88;100854.56;5132924;27;20132;-71
2022/12/15 05:40:08;;;;;;;22.53;11.47;;;;;;;5.27;45.28;100857.09;5115281;27;20027;-70
2022/12/15 05:42:34;;;;;;;23.57;12.60;;;;;;;5.12;45.71;100855.16;5114287;27;20025;-70
2022/12/15 05:44:59;;;;;;;27.83;13.70;;;;;;;5.20;46.11;100858.72;5112634;27;20285;-70
2022/12/15 05:47:25;;;;;;;40.27;13.70;;;;;;;5.14;46.34;100858.66;5114251;27;20031;-70
2022/12/15 05:49:50;;;;;;;29.10;13.27;;;;;;;5.10;46.03;100869.84;5133592;27;20102;-69
2022/12/15 05:52:16;;;;;;;23.00;12.27;;;;;;;4.64;48.12;100862.28;5110197;27;20390;-70
2022/12/15 05:54:42;;;;;;;23.13;13.07;;;;;;;4.81;48.11;100865.13;5133340;27;20076;-69
2022/12/15 05:57:07;;;;;;;23.30;12.23;;;;;;;5.06;46.53;100870.66;5113343;27;20023;-70
2022/12/15 05:59:32;;;;;;;27.60;13.10;;;;;;;5.20;46.22;100871.69;5113302;27;20430;-69
2022/12/15 06:01:58;;;;;;;26.40;13.33;;;;;;;5.25;46.30;100883.00;5113741;27;20459;-70
2022/12/15 06:04:23;;;;;;;26.07;13.80;;;;;;;5.07;46.35;100877.59;5133096;27;20020;-70
2022/12/15 06:06:49;;;;;;;27.07;12.93;;;;;;;4.92;47.39;100879.09;5133088;27;20022;-69
2022/12/15 06:09:14;;;;;;;27.73;14.50;;;;;;;5.25;46.25;100879.53;5112712;27;20061;-69
2022/12/15 06:11:40;;;;;;;28.77;13.67;;;;;;;4.74;47.36;100879.72;5130242;27;20091;-68
2022/12/15 06:14:05;;;;;;;31.77;13.67;;;;;;;4.69;47.76;100880.50;5113988;27;20076;-69
2022/12/15 06:16:31;;;;;;;30.77;13.43;;;;;;;4.89;47.07;100888.53;5114080;27;20027;-69
2022/12/15 06:19:00;;;;;;;28.17;13.63;;;;;;;4.90;47.25;100893.75;5113259;27;20069;-69
2022/12/15 06:21:29;;;;;;;27.03;13.23;;;;;;;5.11;46.51;100894.91;5113779;27;20027;-69
2022/12/15 06:23:55;;;;;;;23.17;13.33;;;;;;;5.20;46.30;100892.41;5130358;27;20367;-68
2022/12/15 06:26:24;;;;;;;25.53;13.40;;;;;;;5.10;45.81;100898.34;5112826;27;20319;-71
2022/12/15 06:28:50;;;;;;;29.50;13.73;;;;;;;4.91;47.20;100892.91;5100049;28;20292;-70
2022/12/15 06:31:18;;;;;;;30.00;13.83;;;;;;;5.01;47.33;100885.25;5105459;27;20295;-70
2022/12/15 06:33:43;;;;;;;28.83;13.97;;;;;;;5.46;46.19;100876.31;5130781;27;20285;-71
2022/12/15 06:36:12;;;;;;;27.17;14.17;;;;;;;5.32;46.01;100890.84;5114144;27;20273;-71
2022/12/15 06:38:37;;;;;;;33.23;14.83;;;;;;;5.50;45.45;100885.03;5130698;27;20038;-71
2022/12/15 06:41:04;;;;;;;25.23;13.57;;;;;;;5.63;45.12;100881.69;5111151;27;20288;-70
2022/12/15 06:43:32;;;;;;;23.83;12.53;;;;;;;5.72;45.09;100884.41;5132035;27;20050;-70
2022/12/15 06:46:01;;;;;;;30.37;15.83;;;;;;;5.76;44.39;100886.16;5113862;27;20669;-70
2022/12/15 06:48:27;;;;;;;29.53;15.33;;;;;;;5.63;44.42;100883.44;5112273;27;20293;-71
2022/12/15 06:50:52;;;;;;;29.50;15.53;;;;;;;5.47;45.23;100898.81;5112864;27;20577;-70
2022/12/15 06:53:20;;;;;;;26.93;15.23;;;;;;;5.64;44.56;100890.34;5113931;27;20435;-71
2022/12/15 06:55:46;;;;;;;25.37;14.37;;;;;;;5.64;44.07;100900.72;5111253;27;20478;-71
2022/12/15 06:58:13;;;;;;;28.63;15.30;;;;;;;5.10;46.03;100898.34;5113887;27;20275;-70
2022/12/15 07:00:41;;;;;;;26.03;14.13;;;;;;;5.37;45.16;100902.13;5130478;27;20390;-70
2022/12/15 07:03:11;;;;;;;34.87;16.20;;;;;;;5.27;45.28;100906.34;5110989;27;20320;-71
2022/12/15 07:05:36;;;;;;;32.07;16.90;;;;;;;5.37;44.81;100899.53;5113993;27;20276;-69
2022/12/15 07:08:02;;;;;;;29.07;14.70;;;;;;;5.29;45.38;100898.56;5112872;27;20272;-68
2022/12/15 07:10:27;;;;;;;31.47;15.37;;;;;;;5.17;45.27;100897.56;5130307;27;20019;-68
2022/12/15 07:12:55;;;;;;;31.43;15.10;;;;;;;5.21;45.13;100895.91;5126480;27;20052;-68
2022/12/15 07:15:21;;;;;;;28.20;14.90;;;;;;;5.37;44.84;100895.25;5129127;27;20042;-68
2022/12/15 07:17:46;;;;;;;29.23;15.03;;;;;;;5.64;44.09;100890.34;5112551;27;20308;-69
2022/12/15 07:20:11;;;;;;;27.20;14.43;;;;;;;5.32;44.79;100909.00;5109504;27;20487;-69
2022/12/15 07:22:37;;;;;;;29.27;14.00;;;;;;;5.14;45.76;100907.91;5128867;27;20487;-68
2022/12/15 07:25:03;;;;;;;28.53;14.53;;;;;;;5.05;45.59;100905.19;5113388;28;20019;-69
2022/12/15 07:27:28;;;;;;;25.47;12.97;;;;;;;4.91;45.43;100900.66;5112934;28;20055;-69
2022/12/15 07:29:53;;;;;;;27.63;13.67;;;;;;;5.34;45.04;100904.69;5112761;28;20113;-69
2022/12/15 07:32:19;;;;;;;27.17;12.97;;;;;;;5.31;44.31;100910.69;5109088;28;20102;-68
2022/12/15 07:34:45;;;;;;;25.00;12.80;;;;;;;5.20;45.19;100909.69;5111789;28;20091;-69
2022/12/15 07:37:10;;;;;;;25.23;13.60;;;;;;;5.00;46.08;100909.41;5111062;28;20795;-68
2022/12/15 07:39:35;;;;;;;25.87;13.40;;;;;;;5.06;45.28;100922.47;5131113;28;20034;-69
2022/12/15 07:42:01;;;;;;;27.73;13.00;;;;;;;5.11;45.24;100920.81;5110947;28;20027;-69
2022/12/15 07:44:27;;;;;;;28.70;13.70;;;;;;;4.85;47.02;100929.09;5105093;28;20386;-70
2022/12/15 07:46:53;;;;;;;31.50;14.83;;;;;;;4.64;47.12;100928.75;5112509;28;20395;-70
2022/12/15 07:49:19;;;;;;;27.80;13.47;;;;;;;4.29;49.00;100935.09;5131762;28;20279;-70
2022/12/15 07:51:44;;;;;;;31.77;14.23;;;;;;;4.24;49.67;100924.66;5112594;28;20027;-70
2022/12/15 07:54:11;;;;;;;23.17;11.93;;;;;;;5.21;46.61;100917.50;5112140;28;20039;-70
2022/12/15 07:56:37;;;;;;;29.40;13.50;;;;;;;4.91;47.57;100923.97;5110277;28;20019;-69
2022/12/15 07:59:03;;;;;;;29.63;13.80;;;;;;;5.28;46.49;100931.41;5112509;28;20755;-70
2022/12/15 08:01:29;;;;;;;29.90;14.10;;;;;;;5.02;46.19;100934.50;5105614;28;20299;-69
2022/12/15 08:03:54;;;;;;;31.80;14.80;;;;;;;4.63;48.24;100929.59;5107844;28;20280;-69
2022/12/15 08:06:19;;;;;;;37.90;15.33;;;;;;;5.12;47.73;100932.06;5107531;28;20027;-69
2022/12/15 08:08:45;;;;;;;28.40;15.17;;;;;;;4.79;48.44;100934.16;5112741;28;20026;-69
2022/12/15 08:11:13;;;;;;;33.03;15.20;;;;;;;4.90;48.20;100936.91;5125648;27;20057;-70
2022/12/15 08:13:40;;;;;;;42.90;16.83;;;;;;;4.83;48.85;100935.09;5107802;27;20084;-70
2022/12/15 08:16:06;;;;;;;33.50;15.43;;;;;;;4.91;47.99;100943.84;5112947;27;20791;-70
2022/12/15 08:18:31;;;;;;;32.90;15.47;;;;;;;4.14;49.80;100948.63;5116073;27;20268;-70
2022/12/15 08:21:05;;;;;;;40.60;16.67;;;;;;;4.50;50.05;100937.16;5111405;27;20490;-70
2022/12/15 08:23:31;;;;;;;31.70;15.73;;;;;;;4.98;48.58;100944.81;5111954;27;20057;-69
2022/12/15 08:26:06;;;;;;;29.73;14.33;;;;;;;5.38;47.17;100943.63;5134587;27;20272;-70
2022/12/15 08:28:36;;;;;;;36.53;15.60;;;;;;;5.49;47.28;100941.19;5135238;27;20261;-70
2022/12/15 08:31:14;;;;;;;38.13;15.77;;;;;;;5.60;46.89;100952.56;5132653;27;20285;-69
2022/12/15 08:33:39;;;;;;;39.77;19.00;;;;;;;5.12;48.00;100956.22;5130717;27;20296;-71
2022/12/15 08:36:08;;;;;;;36.87;16.67;;;;;;;4.99;48.25;100957.78;5116425;27;20264;-70
2022/12/15 08:38:35;;;;;;;33.00;16.30;;;;;;;5.34;47.77;100965.16;5114923;27;20067;-69
2022/12/15 08:41:09;;;;;;;33.27;16.37;;;;;;;5.47;48.11;100948.09;5114610;27;20296;-69
2022/12/15 08:43:35;;;;;;;33.97;15.97;;;;;;;5.37;47.94;100953.97;5111784;27;20672;-69
2022/12/15 08:46:00;;;;;;;38.97;18.40;;;;;;;4.76;50.13;100965.19;5115929;27;20351;-69
2022/12/15 08:48:25;;;;;;;33.87;15.87;;;;;;;5.20;48.35;100957.22;5133223;27;20110;-69
2022/12/15 08:50:54;;;;;;;34.90;17.00;;;;;;;5.74;47.67;100959.63;5115794;27;20054;-70
2022/12/15 08:53:19;;;;;;;34.73;17.23;;;;;;;5.82;47.62;100958.00;5106813;27;20038;-70
2022/12/15 08:55:44;;;;;;;36.07;17.00;;;;;;;5.99;47.23;100952.16;5114459;27;20651;-69
2022/12/15 08:58:10;;;;;;;32.20;17.03;;;;;;;5.70;47.41;100958.75;5132449;27;20030;-69
2022/12/15 09:00:35;;;;;;;39.43;17.07;;;;;;;6.03;47.01;100961.72;5113677;27;20113;-69
2022/12/15 09:03:01;;;;;;;35.80;16.50;;;;;;;6.41;45.74;100956.03;5111420;27;20514;-69
2022/12/15 09:05:27;;;;;;;41.30;16.73;;;;;;;6.18;47.16;100967.09;5130505;27;20489;-69
2022/12/15 09:07:57;;;;;;;39.23;18.67;;;;;;;6.05;47.19;100968.66;5110339;27;20347;-69
2022/12/15 09:10:23;;;;;;;38.27;17.40;;;;;;;6.24;46.96;100972.31;5110784;27;20030;-69
2022/12/15 09:12:49;;;;;;;33.40;17.20;;;;;;;6.26;46.74;100965.44;5108805;27;20288;-69
2022/12/15 09:15:15;;;;;;;37.23;16.87;;;;;;;6.49;46.36;100956.97;5113563;27;20045;-69
2022/12/15 09:17:40;;;;;;;39.20;17.70;;;;;;;6.69;45.31;100964.06;5109295;27;20280;-69
2022/12/15 09:20:08;;;;;;;37.33;17.07;;;;;;;6.63;45.32;100962.28;5132409;27;20034;-69
2022/12/15 09:22:33;;;;;;;30.67;17.60;;;;;;;6.57;45.97;100963.09;5108761;27;20055;-69
2022/12/15 09:24:58;;;;;;;33.90;16.10;;;;;;;6.31;46.80;100962.03;5115278;27;20783;-70
2022/12/15 09:27:24;;;;;;;34.57;16.90;;;;;;;6.18;47.86;100974.00;5114545;27;20076;-69
2022/12/15 09:29:49;;;;;;;35.17;17.70;;;;;;;6.27;47.67;100971.50;5113618;27;20026;-70
2022/12/15 09:32:14;;;;;;;37.53;18.77;;;;;;;5.96;50.16;100984.09;5096722;27;20035;-69
2022/12/15 09:34:40;;;;;;;41.50;19.77;;;;;;;6.47;48.19;100978.59;5113835;27;20023;-70
2022/12/15 09:37:06;;;;;;;45.33;20.53;;;;;;;6.52;48.33;100977.78;5111498;27;20054;-70
2022/12/15 09:39:31;;;;;;;46.70;20.00;;;;;;;6.57;48.41;100976.09;5114934;27;20509;-70
2022/12/15 09:42:00;;;;;;;44.93;20.03;;;;;;;7.13;47.50;100982.59;5113206;27;20037;-69
2022/12/15 09:44:28;;;;;;;35.33;18.40;;;;;;;7.21;47.29;100973.97;5112281;27;20023;-72
2022/12/15 09:47:16;;;;;;;37.90;19.10;;;;;;;7.20;47.18;100975.69;5114082;27;20379;-70
2022/12/15 09:50:00;;;;;;;41.87;20.37;;;;;;;7.35;47.54;100981.84;5132906;27;20035;-70
2022/12/15 09:52:48;;;;;;;41.03;18.67;;;;;;;7.36;47.30;100983.59;5112225;27;20026;-69
2022/12/15 09:55:22;;;;;;;39.10;19.67;;;;;;;7.33;47.89;100983.56;5111936;27;20031;-70
2022/12/15 09:58:21;;;;;;;40.80;19.67;;;;;;;7.21;49.18;100993.06;5110120;27;20123;-69
2022/12/15 10:01:00;;;;;;;41.60;20.77;;;;;;;7.13;49.73;100987.78;5113339;27;20111;-70
2022/12/15 10:03:38;;;;;;;42.93;21.47;;;;;;;7.25;49.87;100996.53;5114661;27;20114;-70
2022/12/15 10:06:26;;;;;;;43.13;21.93;;;;;;;7.66;49.11;100997.63;5114163;27;20039;-69
2022/12/15 10:08:59;;;;;;;47.30;24.03;;;;;;;6.92;50.80;101004.13;5114363;27;20060;-69
2022/12/15 10:11:43;;;;;;;;;;;;;;;7.29;51.03;101006.09;5113590;27;20079;-69
2022/12/15 10:14:26;;;;;;;46.30;23.17;;;;;;;7.90;49.35;101002.94;5112471;27;19924;-69
2022/12/15 10:17:16;;;;;;;47.10;23.83;;;;;;;7.45;50.44;101007.06;5133091;27;20027;-70
2022/12/15 10:19:52;;;;;;;46.50;23.83;;;;;;;8.12;49.01;101005.59;5131575;27;20045;-70
2022/12/15 10:22:32;;;;;;;53.13;26.37;;;;;;;8.41;48.49;101007.41;5096588;27;20704;-70
2022/12/15 10:25:06;;;;;;;48.77;23.93;;;;;;;8.56;48.47;101010.06;5106816;27;20023;-70
2022/12/15 10:27:47;;;;;;;51.40;25.40;;;;;;;9.42;47.80;101005.66;5111492;27;20138;-70
2022/12/15 10:30:14;;;;;;;56.63;27.20;;;;;;;10.53;45.72;100994.72;5128898;27;20038;-70
2022/12/15 10:33:01;;;;;;;46.27;24.37;;;;;;;10.53;45.15;100999.94;5113339;27;20099;-70
2022/12/15 10:35:33;;;;;;;48.23;22.93;;;;;;;10.45;45.07;100999.13;5112231;27;20064;-69
2022/12/15 10:38:02;;;;;;;47.13;22.05;;;;;;;10.27;44.56;100995.72;5113880;27;20031;-70
2022/12/15 10:40:52;;;;;;;37.10;19.40;;;;;;;9.75;45.98;101001.19;5131923;27;20046;-69
2022/12/15 10:43:28;;;;;;;38.83;20.17;;;;;;;9.90;45.62;101000.28;5113595;27;20015;-70
2022/12/15 10:46:12;;;;;;;34.47;20.17;;;;;;;9.95;45.58;100998.53;5128502;27;20043;-69
2022/12/15 10:48:38;;;;;;;36.20;18.10;;;;;;;9.61;45.69;101001.25;5111565;27;20333;-69
2022/12/15 10:51:39;;;;;;;33.13;16.80;;;;;;;9.86;45.68;101004.63;5132443;27;20513;-70
2022/12/15 10:54:11;;;;;;;34.20;17.43;;;;;;;9.28;47.16;101000.47;5112136;27;20023;-69
2022/12/15 10:56:52;;;;;;;35.50;17.00;;;;;;;9.34;46.80;101001.34;5124527;27;20034;-70
2022/12/15 10:59:25;;;;;;;30.43;17.10;;;;;;;9.13;48.20;101001.34;5112829;27;20035;-70
2022/12/15 11:01:51;;;;;;;32.40;16.67;;;;;;;9.76;47.24;101000.34;5112966;27;20253;-69
2022/12/15 11:04:24;;;;;;;33.73;18.20;;;;;;;9.90;46.78;101001.13;5113282;27;20019;-70
2022/12/15 11:06:55;;;;;;;40.33;19.37;;;;;;;9.87;46.86;101001.16;5112114;27;20027;-69
2022/12/15 11:09:32;;;;;;;31.03;17.50;;;;;;;9.95;47.25;101004.59;5113754;28;20471;-70
2022/12/15 11:14:49;;;;;;;29.37;15.20;;;;;;;10.47;47.92;100985.16;5127488;27;20740;-69
2022/12/15 11:17:17;;;;;;;27.43;16.00;;;;;;;10.21;47.46;100990.53;5110553;27;20467;-70
2022/12/15 11:19:58;;;;;;;27.10;13.93;;;;;;;11.10;46.53;100988.13;5110792;27;20035;-70
2022/12/15 11:22:40;;;;;;;25.50;13.33;;;;;;;10.78;45.94;100992.75;5131240;27;20019;-70
2022/12/15 11:25:41;;;;;;;24.23;12.53;;;;;;;10.45;47.90;100991.28;5110533;27;20493;-70
2022/12/15 11:28:15;;;;;;;26.53;13.43;;;;;;;10.26;47.97;100983.56;5111972;27;20035;-70
2022/12/15 11:30:46;;;;;;;24.63;13.43;;;;;;;11.08;46.20;100990.75;5109006;28;20146;-70
2022/12/15 11:33:12;;;;;;;20.37;12.00;;;;;;;10.01;47.53;100986.31;5108903;28;20031;-70
2022/12/15 11:35:37;;;;;;;26.90;12.20;;;;;;;9.58;49.07;100993.44;5111381;28;20130;-70
2022/12/15 11:38:14;;;;;;;21.27;12.30;;;;;;;11.23;45.52;100984.50;5111656;28;20039;-70
2022/12/15 11:40:43;;;;;;;25.33;12.43;;;;;;;10.91;45.73;100983.09;5130533;28;20043;-70
2022/12/15 11:43:46;;;;;;;25.63;13.13;;;;;;;11.37;46.06;100992.22;5112588;28;20031;-69
2022/12/15 11:46:29;;;;;;;30.08;15.85;;;;;;;10.32;47.92;100987.88;5112101;28;20078;-70
2022/12/15 11:49:19;;;;;;;31.80;16.53;;;;;;;10.45;47.96;100988.66;5103677;27;20031;-70
2022/12/15 11:51:59;;;;;;;46.03;17.13;;;;;;;11.73;46.21;100982.19;5129591;27;20019;-70
2022/12/15 11:54:41;;;;;;;32.10;17.80;;;;;;;11.85;46.31;100984.66;5114670;27;20449;-70
2022/12/15 11:57:39;;;;;;;30.27;18.53;;;;;;;11.64;46.93;100990.19;5108414;27;20023;-70
2022/12/15 12:00:07;;;;;;;29.57;16.87;;;;;;;12.18;45.02;100982.50;5114997;27;20818;-70
2022/12/15 12:02:32;;;;;;;33.93;15.00;;;;;;;12.26;44.56;100984.16;5135487;27;20047;-70
2022/12/15 12:05:04;;;;;;;27.97;15.13;;;;;;;11.15;46.54;100986.34;5115667;27;20406;-70
2022/12/15 12:07:44;;;;;;;26.30;13.23;;;;;;;10.62;48.13;100981.56;5115171;27;20521;-69
2022/12/15 12:10:51;;;;;;;21.80;12.77;;;;;;;11.01;47.23;100984.72;5114938;27;20524;-70
2022/12/15 12:14:00;;;;;;;22.50;12.77;;;;;;;11.29;46.24;100974.00;5114473;27;20039;-70
2022/12/15 12:16:35;;;;;;;23.67;13.77;;;;;;;11.12;46.21;100965.44;5106472;28;20077;-70
2022/12/15 12:19:05;;;;;;;26.23;13.60;;;;;;;11.09;46.45;100965.50;5102008;27;20038;-70
2022/12/15 12:21:35;;;;;;;24.93;13.43;;;;;;;10.89;47.33;100958.69;5117060;27;20031;-70
2022/12/15 12:24:33;;;;;;;23.53;13.57;;;;;;;10.69;47.16;100958.88;5114578;27;20030;-70
2022/12/15 12:27:00;;;;;;;26.13;13.13;;;;;;;11.50;45.53;100957.16;5113618;27;20046;-70
2022/12/15 12:29:32;;;;;;;27.80;14.07;;;;;;;11.64;45.13;100954.38;5111346;27;20080;-70
2022/12/15 12:32:17;;;;;;;27.23;13.60;;;;;;;11.60;45.75;100957.91;5109441;27;20039;-70
2022/12/15 12:34:57;;;;;;;26.17;13.33;;;;;;;12.31;44.16;100941.25;5112794;27;20023;-70
2022/12/15 12:37:35;;;;;;;25.53;13.00;;;;;;;12.53;43.66;100933.06;5113811;27;20156;-70
2022/12/15 12:40:47;;;;;;;23.80;12.27;;;;;;;12.18;44.06;100929.22;5106411;27;20035;-70
2022/12/15 12:43:33;;;;;;;20.30;11.27;;;;;;;12.38;44.75;100936.81;5126352;27;20142;-70
2022/12/15 12:46:07;;;;;;;22.03;11.60;;;;;;;13.60;41.99;100937.22;5117774;27;20031;-70
2022/12/15 12:48:49;;;;;;;21.37;11.20;;;;;;;12.92;43.34;100940.28;5124411;27;20024;-71
2022/12/15 12:51:26;;;;;;;21.47;11.30;;;;;;;13.98;41.87;100926.78;5126669;27;20110;-70
2022/12/15 12:53:52;;;;;;;18.53;10.50;;;;;;;13.48;42.47;100937.50;5110003;27;20046;-71
2022/12/15 12:56:39;;;;;;;17.77;10.30;;;;;;;13.62;41.08;100930.16;5131817;27;20057;-70
2022/12/15 12:59:27;;;;;;;16.97;9.97;;;;;;;13.26;42.13;100931.75;5132333;27;20034;-70
2022/12/15 13:02:19;;;;;;;17.90;9.87;;;;;;;13.53;42.54;100926.00;5127056;27;20059;-70
2022/12/15 13:04:59;;;;;;;20.97;10.13;;;;;;;13.58;41.75;100928.50;5076674;27;20046;-70
2022/12/15 13:07:27;;;;;;;15.87;8.87;;;;;;;13.51;41.99;100927.78;5131347;27;20027;-70
2022/12/15 13:10:08;;;;;;;16.50;8.83;;;;;;;13.42;41.95;100927.94;5127436;27;20023;-71
2022/12/15 13:12:51;;;;;;;16.23;8.30;;;;;;;12.67;42.84;100928.44;5108293;27;20099;-70
2022/12/15 13:15:25;;;;;;;15.40;8.53;;;;;;;13.46;42.02;100924.38;5104395;27;20031;-70
2022/12/15 13:17:56;;;;;;;17.77;9.07;;;;;;;13.18;42.66;100924.03;5131732;27;20035;-70
2022/12/15 13:20:28;;;;;;;19.50;9.00;;;;;;;13.06;42.37;100917.25;5133325;27;20070;-70
2022/12/15 13:22:55;;;;;;;21.20;12.27;;;;;;;12.73;43.17;100917.84;5111970;27;20065;-70
2022/12/15 13:25:34;;;;;;;24.80;13.60;;;;;;;12.66;44.16;100916.22;5114055;27;20034;-70
2022/12/15 13:28:14;;;;;;;25.07;14.13;;;;;;;12.94;43.08;100915.75;5132737;27;20436;-71
2022/12/15 13:31:12;;;;;;;26.07;15.23;;;;;;;12.98;43.23;100913.91;5113053;27;20460;-70
2022/12/15 13:33:54;;;;;;;25.97;13.37;;;;;;;11.58;46.86;100912.59;5110162;27;20038;-70
2022/12/15 13:36:38;;;;;;;26.23;14.63;;;;;;;12.31;44.78;100899.34;5116729;27;20035;-69
2022/12/15 13:39:15;;;;;;;29.80;14.33;;;;;;;12.50;44.32;100889.41;5113802;27;20039;-70
2022/12/15 13:41:42;;;;;;;25.47;14.43;;;;;;;12.75;43.82;100903.84;5112211;27;20027;-70
2022/12/15 13:44:34;;;;;;;24.87;14.27;;;;;;;12.65;43.56;100893.53;5107598;27;20110;-70
2022/12/15 13:47:21;;;;;;;20.83;12.00;;;;;;;12.11;44.88;100893.53;5106775;27;20494;-69
2022/12/15 13:49:54;;;;;;;22.87;13.60;;;;;;;11.83;45.48;100896.53;5102812;27;20081;-70
2022/12/15 13:52:22;;;;;;;24.97;13.40;;;;;;;12.34;45.08;100888.78;5110381;27;20019;-69
2022/12/15 13:54:58;;;;;;;25.30;13.90;;;;;;;12.37;44.81;100893.13;5133322;27;20530;-70
2022/12/15 13:57:25;;;;;;;30.97;14.77;;;;;;;12.59;43.77;100887.53;5131954;27;20035;-69
2022/12/15 14:00:00;;;;;;;26.87;13.97;;;;;;;12.64;43.76;100890.91;5112906;27;20514;-70
2022/12/15 14:02:26;;;;;;;22.57;12.53;;;;;;;12.41;44.33;100893.94;5112699;27;20058;-70
2022/12/15 14:05:18;;;;;;;21.20;12.97;;;;;;;12.22;44.55;100894.22;5112390;27;20055;-70